createdAt,value
2022-09-23T00:00:44.209Z,100807.94
2022-09-23T00:04:46.756Z,100812.16
2022-09-23T00:08:50.171Z,100802.66
2022-09-23T00:12:52.043Z,100809.34
2022-09-23T00:16:53.622Z,100811.66
2022-09-23T00:20:55.664Z,100819.28
2022-09-23T00:24:57.212Z,100807.91
2022-09-23T00:28:58.746Z,100802.59
2022-09-23T00:33:00.264Z,100805.81
2022-09-23T00:37:01.774Z,100806.38
2022-09-23T00:41:03.969Z,100809.38
2022-09-23T00:45:11.073Z,100814.81
2022-09-23T00:49:18.209Z,100802.47
2022-09-23T00:53:23.669Z,100804.38
2022-09-23T00:57:27.415Z,100815.94
2022-09-23T01:01:29.037Z,100809.53
2022-09-23T01:05:32.010Z,100796.13
2022-09-23T01:09:33.879Z,100798.84
2022-09-23T01:13:48.733Z,100800.44
2022-09-23T01:18:08.292Z,100799.13
2022-09-23T01:22:32.643Z,100790.47
2022-09-23T01:26:52.013Z,100799.97
2022-09-23T01:31:04.723Z,100784.59
2022-09-23T01:35:25.792Z,100794.00
2022-09-23T01:39:51.378Z,100788.69
2022-09-23T01:44:09.970Z,100793.03
2022-09-23T01:48:58.586Z,100785.22
2022-09-23T01:53:06.637Z,100783.25
2022-09-23T01:57:15.393Z,100787.59
2022-09-23T02:01:23.931Z,100776.34
2022-09-23T02:05:30.559Z,100783.78
2022-09-23T02:09:37.417Z,100778.53
2022-09-23T02:13:57.882Z,100777.47
2022-09-23T02:18:06.359Z,100778.50
2022-09-23T02:22:30.877Z,100776.56
2022-09-23T02:26:44.739Z,100778.19
2022-09-23T02:30:56.117Z,100764.50
2022-09-23T02:35:23.371Z,100767.81
2022-09-23T02:39:36.977Z,100764.25
2022-09-23T02:43:51.489Z,100768.19
2022-09-23T02:47:58.742Z,100761.19
2022-09-23T02:52:04.639Z,100760.22
2022-09-23T02:56:18.999Z,100752.56
2022-09-23T03:00:20.948Z,100753.13
2022-09-23T03:04:56.970Z,100740.00
2022-09-23T03:09:07.791Z,100749.66
2022-09-23T03:13:29.481Z,100744.41
2022-09-23T03:18:01.768Z,100746.84
2022-09-23T03:22:06.163Z,100748.53
2022-09-23T03:26:19.306Z,100747.81
2022-09-23T03:30:21.654Z,100745.06
2022-09-23T03:34:30.002Z,100746.84
2022-09-23T03:38:37.923Z,100753.81
2022-09-23T03:42:39.968Z,100752.75
2022-09-23T03:46:43.989Z,100748.56
2022-09-23T03:50:45.480Z,100745.75
2022-09-23T03:54:47.461Z,100744.03
2022-09-23T03:58:49.044Z,100737.28
2022-09-23T04:02:50.574Z,100728.72
2022-09-23T04:06:52.128Z,100733.84
2022-09-23T04:10:59.471Z,100732.03
2022-09-23T04:15:01.045Z,100733.03
2022-09-23T04:19:02.635Z,100735.66
2022-09-23T04:23:04.276Z,100729.72
2022-09-23T04:27:06.375Z,100728.13
2022-09-23T04:31:09.501Z,100732.44
2022-09-23T04:35:11.174Z,100741.09
2022-09-23T04:39:14.942Z,100751.56
2022-09-23T04:43:17.222Z,100740.22
2022-09-23T04:47:19.266Z,100757.38
2022-09-23T04:51:24.842Z,100761.56
2022-09-23T04:55:26.384Z,100756.28
2022-09-23T04:59:27.872Z,100749.72
2022-09-23T05:03:30.133Z,100753.38
2022-09-23T05:07:31.652Z,100758.63
2022-09-23T05:11:33.859Z,100754.63
2022-09-23T05:15:35.716Z,100748.00
2022-09-23T05:19:37.291Z,100746.66
2022-09-23T05:23:40.467Z,100751.09
2022-09-23T05:27:42.266Z,100747.19
2022-09-23T05:31:44.040Z,100749.13
2022-09-23T05:35:49.214Z,100739.09
2022-09-23T05:39:50.744Z,100754.09
2022-09-23T05:43:53.464Z,100757.84
2022-09-23T05:47:55.044Z,100754.75
2022-09-23T05:51:56.813Z,100763.44
2022-09-23T05:55:58.637Z,100754.03
2022-09-23T06:00:00.319Z,100754.97
2022-09-23T06:04:03.996Z,100770.78
2022-09-23T06:08:05.947Z,100769.28
2022-09-23T06:12:07.738Z,100760.19
2022-09-23T06:16:14.977Z,100764.81
2022-09-23T06:20:16.736Z,100756.72
2022-09-23T06:24:21.549Z,100758.06
2022-09-23T06:28:25.428Z,100759.50
2022-09-23T06:32:26.999Z,100754.69
2022-09-23T06:36:40.316Z,100748.28
2022-09-23T06:40:44.602Z,100740.84
2022-09-23T06:44:46.262Z,100747.53
2022-09-23T06:48:49.069Z,100741.81
2022-09-23T06:52:59.729Z,100751.00
2022-09-23T06:57:01.320Z,100749.50
2022-09-23T07:01:22.102Z,100748.00
2022-09-23T07:05:23.762Z,100750.69
2022-09-23T07:09:25.912Z,100755.13
2022-09-23T07:13:28.540Z,100750.75
2022-09-23T07:17:30.409Z,100756.44
2022-09-23T07:21:31.963Z,100762.50
2022-09-23T07:25:34.152Z,100756.56
2022-09-23T07:29:46.772Z,100760.19
2022-09-23T07:33:49.901Z,100752.78
2022-09-23T07:37:51.425Z,100762.19
2022-09-23T07:41:52.960Z,100756.34
2022-09-23T07:45:55.484Z,100761.78
2022-09-23T07:49:57.063Z,100760.19
2022-09-23T07:53:58.968Z,100772.13
2022-09-23T07:58:00.747Z,100759.16
2022-09-23T08:02:02.441Z,100755.31
2022-09-23T08:06:11.974Z,100754.38
2022-09-23T08:10:13.530Z,100750.59
2022-09-23T08:14:15.727Z,100754.38
2022-09-23T08:18:17.277Z,100757.44
2022-09-23T08:22:19.865Z,100759.75
2022-09-23T08:26:22.526Z,100758.22
2022-09-23T08:30:24.181Z,100761.06
2022-09-23T08:34:27.767Z,100751.09
2022-09-23T08:38:30.169Z,100758.03
2022-09-23T08:42:33.638Z,100762.53
2022-09-23T08:46:44.808Z,100757.56
2022-09-23T08:50:50.061Z,100766.13
2022-09-23T08:54:55.328Z,100760.31
2022-09-23T08:59:07.389Z,100757.75
2022-09-23T09:03:23.773Z,100756.13
2022-09-23T09:07:38.394Z,100762.47
2022-09-23T09:11:48.546Z,100745.56
2022-09-23T09:16:12.762Z,100743.38
2022-09-23T09:20:29.329Z,100743.00
2022-09-23T09:24:35.047Z,100739.91
2022-09-23T09:28:45.311Z,100738.66
2022-09-23T09:32:54.951Z,100720.94
2022-09-23T09:37:11.450Z,100715.16
2022-09-23T09:41:17.817Z,100709.56
2022-09-23T09:45:57.520Z,100711.75
2022-09-23T09:50:45.939Z,100699.22
2022-09-23T09:54:49.342Z,100702.81
2022-09-23T09:59:13.401Z,100697.06
2022-09-23T10:03:14.894Z,100686.16
2022-09-23T10:07:23.382Z,100689.94
2022-09-23T10:11:24.960Z,100678.22
2022-09-23T10:15:33.102Z,100681.00
2022-09-23T10:19:37.074Z,100671.75
2022-09-23T10:23:45.169Z,100670.25
2022-09-23T10:27:47.123Z,100672.16
2022-09-23T10:31:52.940Z,100649.91
2022-09-23T10:35:57.338Z,100652.66
2022-09-23T10:40:18.692Z,100649.38
2022-09-23T10:45:37.547Z,100647.88
2022-09-23T10:49:58.840Z,100643.94
2022-09-23T10:54:10.978Z,100634.66
2022-09-23T10:58:32.707Z,100634.97
2022-09-23T11:02:43.951Z,100633.44
2022-09-23T11:07:00.623Z,100627.66
2022-09-23T11:11:30.240Z,100620.22
2022-09-23T11:15:38.967Z,100623.88
2022-09-23T11:20:09.604Z,100624.09
2022-09-23T11:24:50.089Z,100611.41
2022-09-23T11:28:51.546Z,100602.06
2022-09-23T11:33:29.934Z,100601.41
2022-09-23T11:37:44.575Z,100586.06
2022-09-23T11:41:49.877Z,100594.00
2022-09-23T11:45:58.685Z,100583.00
2022-09-23T11:50:05.016Z,100577.09
2022-09-23T11:54:34.783Z,100575.47
2022-09-23T11:59:08.793Z,100560.94
2022-09-23T12:03:37.897Z,100553.38
2022-09-23T12:07:56.639Z,100542.25
2022-09-23T12:11:58.128Z,100542.47
2022-09-23T12:16:30.744Z,100535.63
2022-09-23T12:20:53.718Z,100531.34
2022-09-23T12:25:30.593Z,100528.78
2022-09-23T12:29:35.173Z,100524.47
2022-09-23T12:33:38.701Z,100525.41
2022-09-23T12:37:40.718Z,100529.72
2022-09-23T12:41:47.221Z,100521.09
2022-09-23T12:45:49.953Z,100509.88
2022-09-23T12:49:53.137Z,100511.66
2022-09-23T12:53:56.207Z,100503.03
2022-09-23T12:57:57.712Z,100496.13
2022-09-23T13:02:37.959Z,100494.38
2022-09-23T13:07:06.453Z,100495.28
2022-09-23T13:11:21.529Z,100496.16
2022-09-23T13:15:29.806Z,100486.63
2022-09-23T13:19:35.400Z,100486.59
2022-09-23T13:24:00.161Z,100481.38
2022-09-23T13:28:02.706Z,100473.56
2022-09-23T13:32:06.268Z,100477.00
2022-09-23T13:36:16.352Z,100476.16
2022-09-23T13:40:24.462Z,100473.59
2022-09-23T13:44:27.955Z,100461.50
2022-09-23T13:48:29.768Z,100447.59
2022-09-23T13:52:32.891Z,100440.69
2022-09-23T13:56:36.510Z,100446.69
2022-09-23T14:00:38.582Z,100431.94
2022-09-23T14:04:40.308Z,100421.50
2022-09-23T14:08:45.635Z,100426.72
2022-09-23T14:12:49.322Z,100431.06
2022-09-23T14:16:51.725Z,100438.03
2022-09-23T14:20:53.417Z,100422.47
2022-09-23T14:24:56.446Z,100414.66
2022-09-23T14:28:58.149Z,100414.63
2022-09-23T14:32:59.873Z,100407.66
2022-09-23T14:38:04.621Z,100404.13
2022-09-23T14:42:07.431Z,100394.47
2022-09-23T14:46:19.398Z,100396.22
2022-09-23T14:50:42.624Z,100398.88
2022-09-23T14:54:47.032Z,100409.44
2022-09-23T14:58:59.619Z,100401.69
2022-09-23T15:03:03.647Z,100390.47
2022-09-23T15:07:14.716Z,100393.09
2022-09-23T15:11:16.257Z,100399.16
2022-09-23T15:15:18.742Z,100398.28
2022-09-23T15:19:22.120Z,100387.00
2022-09-23T15:23:47.452Z,100388.78
2022-09-23T15:28:16.711Z,100395.69
2022-09-23T15:32:18.300Z,100390.47
2022-09-23T15:36:22.883Z,100393.94
2022-09-23T15:40:33.019Z,100399.13
2022-09-23T15:44:36.237Z,100393.94
2022-09-23T15:48:42.485Z,100392.22
2022-09-23T15:52:45.026Z,100399.13
2022-09-23T15:56:47.776Z,100387.00
2022-09-23T16:00:56.299Z,100393.91
2022-09-23T16:04:58.458Z,100377.44
2022-09-23T16:09:00.004Z,100376.53
2022-09-23T16:13:03.083Z,100380.00
2022-09-23T16:17:05.168Z,100383.47
2022-09-23T16:21:09.357Z,100380.00
2022-09-23T16:25:12.294Z,100372.19
2022-09-23T16:29:14.006Z,100361.81
2022-09-23T16:33:15.531Z,100369.53
2022-09-23T16:37:17.999Z,100356.56
2022-09-23T16:41:19.637Z,100369.50
2022-09-23T16:45:23.150Z,100368.56
2022-09-23T16:49:24.950Z,100359.88
2022-09-23T16:53:30.014Z,100363.25
2022-09-23T16:57:31.530Z,100361.53
2022-09-23T17:01:51.714Z,100372.69
2022-09-23T17:05:54.297Z,100368.28
2022-09-23T17:09:55.882Z,100372.59
2022-09-23T17:13:58.022Z,100376.81
2022-09-23T17:17:59.537Z,100381.09
2022-09-23T17:22:01.018Z,100370.66
2022-09-23T17:26:05.331Z,100379.25
2022-09-23T17:30:07.414Z,100382.66
2022-09-23T17:34:09.377Z,100371.44
2022-09-23T17:38:10.916Z,100369.63
2022-09-23T17:42:12.584Z,100376.50
2022-09-23T17:46:18.190Z,100377.34
2022-09-23T17:50:19.955Z,100372.97
2022-09-23T17:54:21.464Z,100383.31
2022-09-23T17:58:32.472Z,100381.56
2022-09-23T18:02:34.064Z,100378.09
2022-09-23T18:06:37.074Z,100361.69
2022-09-23T18:10:38.652Z,100368.53
2022-09-23T18:14:40.437Z,100361.56
2022-09-23T18:18:42.849Z,100365.81
2022-09-23T18:22:44.355Z,100365.75
2022-09-23T18:26:46.750Z,100361.34
2022-09-23T18:30:55.970Z,100374.22
2022-09-23T18:34:57.779Z,100364.69
2022-09-23T18:38:59.951Z,100367.25
2022-09-23T18:43:01.544Z,100369.81
2022-09-23T18:47:03.047Z,100374.91
2022-09-23T18:51:07.365Z,100371.41
2022-09-23T18:55:08.866Z,100360.09
2022-09-23T18:59:19.492Z,100361.75
2022-09-23T19:03:21.084Z,100360.91
2022-09-23T19:07:22.609Z,100384.06
2022-09-23T19:11:24.931Z,100372.69
2022-09-23T19:15:26.441Z,100370.91
2022-09-23T19:19:30.041Z,100364.88
2022-09-23T19:23:33.780Z,100357.13
2022-09-23T19:27:35.985Z,100357.97
2022-09-23T19:31:42.112Z,100368.25
2022-09-23T19:35:51.767Z,100360.44
2022-09-23T19:39:53.273Z,100369.88
2022-09-23T19:43:56.796Z,100368.06
2022-09-23T19:47:58.398Z,100367.16
2022-09-23T19:52:00.306Z,100361.16
2022-09-23T19:56:04.876Z,100371.44
2022-09-23T20:00:06.690Z,100371.38
2022-09-23T20:04:15.515Z,100365.34
2022-09-23T20:08:17.190Z,100362.72
2022-09-23T20:12:18.703Z,100349.69
2022-09-23T20:16:20.748Z,100347.03
2022-09-23T20:20:22.321Z,100333.19
2022-09-23T20:24:23.844Z,100345.22
2022-09-23T20:28:27.320Z,100335.69
2022-09-23T20:32:28.988Z,100334.75
2022-09-23T20:36:30.533Z,100332.13
2022-09-23T20:40:32.148Z,100338.06
2022-09-23T20:44:33.773Z,100331.97
2022-09-23T20:48:35.316Z,100328.53
2022-09-23T20:52:36.804Z,100325.88
2022-09-23T20:56:38.319Z,100322.34
2022-09-23T21:00:41.068Z,100323.94
2022-09-23T21:04:42.705Z,100332.44
2022-09-23T21:08:44.651Z,100326.34
2022-09-23T21:12:50.294Z,100337.47
2022-09-23T21:16:52.932Z,100327.97
2022-09-23T21:20:58.413Z,100333.09
2022-09-23T21:29:21.888Z,100343.41
2022-09-23T21:33:23.355Z,100329.63
2022-09-23T21:37:25.440Z,100331.38
2022-09-23T21:41:27.873Z,100338.28
2022-09-23T21:45:29.400Z,100346.06
2022-09-23T21:49:32.169Z,100352.13
2022-09-23T21:53:36.734Z,100344.38
2022-09-23T21:57:38.552Z,100351.28
2022-09-23T22:01:44.854Z,100352.09
2022-09-23T22:05:46.679Z,100352.91
2022-09-23T22:09:48.290Z,100355.47
2022-09-23T22:13:49.763Z,100358.00
2022-09-23T22:17:52.446Z,100351.13
2022-09-23T22:21:55.771Z,100352.81
2022-09-23T22:26:02.829Z,100353.66
2022-09-23T22:30:24.353Z,100348.50
2022-09-23T22:34:48.555Z,100346.69
2022-09-23T22:38:59.028Z,100335.38
2022-09-23T22:43:01.159Z,100332.81
2022-09-23T22:47:03.081Z,100335.38
2022-09-23T22:51:05.005Z,100323.34
2022-09-23T22:55:09.677Z,100323.44
2022-09-23T22:59:12.605Z,100318.31
2022-09-23T23:03:20.409Z,100321.78
2022-09-23T23:07:21.972Z,100311.53
2022-09-23T23:11:23.470Z,100303.81
2022-09-23T23:15:24.968Z,100305.53
2022-09-23T23:19:26.455Z,100288.31
2022-09-23T23:23:27.951Z,100279.66
2022-09-23T23:27:29.460Z,100288.97
2022-09-23T23:31:32.115Z,100295.84
2022-09-23T23:35:33.817Z,100298.47
2022-09-23T23:39:35.393Z,100296.72
2022-09-23T23:43:45.885Z,100295.03
2022-09-23T23:47:47.413Z,100293.38
2022-09-23T23:51:49.059Z,100299.44
2022-09-23T23:55:51.395Z,100291.72
2022-09-23T23:59:52.943Z,100283.94
